createdAt,value
2023-04-18T00:01:19.628Z,1024.90
2023-04-18T00:16:20.118Z,1024.96
2023-04-18T00:31:20.428Z,1024.96
2023-04-18T00:46:20.377Z,1024.98
2023-04-18T01:01:20.821Z,1024.93
2023-04-18T01:16:20.603Z,1024.88
2023-04-18T01:31:20.808Z,1024.96
2023-04-18T01:46:21.335Z,1024.95
2023-04-18T02:01:21.949Z,1024.97
2023-04-18T02:16:22.438Z,1024.92
2023-04-18T02:31:22.512Z,1024.97
2023-04-18T02:46:22.757Z,1024.96
2023-04-18T03:01:23.493Z,1025.03
2023-04-18T03:16:23.368Z,1025.10
2023-04-18T03:31:23.912Z,1025.14
2023-04-18T03:46:23.568Z,1025.15
2023-04-18T04:01:24.060Z,1025.26
2023-04-18T04:16:24.191Z,1025.27
2023-04-18T04:31:24.491Z,1025.30
2023-04-18T04:46:25.355Z,1025.53
2023-04-18T05:01:25.675Z,1025.60
2023-04-18T05:16:26.685Z,1025.62
2023-04-18T05:31:26.481Z,1025.59
2023-04-18T05:46:26.429Z,1025.64
2023-04-18T06:01:26.984Z,1025.69
2023-04-18T06:16:27.031Z,1025.89
2023-04-18T06:31:27.222Z,1025.88
2023-04-18T06:46:27.886Z,1025.95
2023-04-18T07:01:29.051Z,1026.00
2023-04-18T07:16:30.269Z,1025.91
2023-04-18T07:31:31.455Z,1025.91
2023-04-18T07:46:32.709Z,1026.09
2023-04-18T08:01:33.842Z,1026.02
2023-04-18T08:16:34.354Z,1026.04
2023-04-18T08:31:35.473Z,1025.98
2023-04-18T08:46:37.096Z,1026.08
2023-04-18T09:01:37.434Z,1026.11
2023-04-18T09:16:37.964Z,1026.21
2023-04-18T09:31:38.295Z,1026.18
2023-04-18T09:46:38.474Z,1026.11
2023-04-18T10:01:39.359Z,1026.21
2023-04-18T10:16:40.440Z,1026.13
2023-04-18T10:31:41.352Z,1026.06
2023-04-18T10:46:41.239Z,1026.02
2023-04-18T11:01:42.332Z,1025.94
2023-04-18T11:16:42.277Z,1025.89
2023-04-18T11:31:42.478Z,1025.77
2023-04-18T11:46:43.059Z,1025.76
2023-04-18T12:01:44.282Z,1025.70
2023-04-18T12:16:45.459Z,1025.72
2023-04-18T12:31:46.624Z,1025.64
2023-04-18T12:46:47.344Z,1025.52
2023-04-18T13:01:47.705Z,1025.50
2023-04-18T13:16:47.856Z,1025.45
2023-04-18T13:31:47.926Z,1025.45
2023-04-18T13:46:48.501Z,1025.33
2023-04-18T14:01:49.762Z,1025.33
2023-04-18T14:16:50.404Z,1025.21
2023-04-18T14:31:51.035Z,1025.17
2023-04-18T14:46:51.803Z,1025.06
2023-04-18T15:01:52.007Z,1024.94
2023-04-18T15:16:52.206Z,1025.00
2023-04-18T15:31:52.229Z,1025.04
2023-04-18T15:46:52.852Z,1025.12
2023-04-18T16:01:53.672Z,1025.14
2023-04-18T16:16:54.041Z,1025.08
2023-04-18T16:31:55.017Z,1025.01
2023-04-18T16:47:12.579Z,1025.13
2023-04-18T17:02:13.666Z,1025.26
2023-04-18T17:17:14.855Z,1025.42
2023-04-18T17:32:16.421Z,1025.51
2023-04-18T17:47:16.934Z,1025.53
2023-04-18T18:02:17.625Z,1025.70
2023-04-18T18:17:19.019Z,1025.80
2023-04-18T18:32:20.088Z,1025.94
2023-04-18T18:47:20.608Z,1025.93
2023-04-18T19:02:21.366Z,1026.03
2023-04-18T19:17:21.880Z,1026.11
2023-04-18T19:32:22.580Z,1026.14
2023-04-18T19:47:23.259Z,1026.12
2023-04-18T20:02:23.526Z,1026.10
2023-04-18T20:17:24.261Z,1025.92
2023-04-18T20:32:25.469Z,1025.86
2023-04-18T20:47:26.186Z,1025.88
2023-04-18T21:02:26.737Z,1025.97
2023-04-18T21:17:27.247Z,1026.04
2023-04-18T21:32:29.072Z,1026.07
2023-04-18T21:47:29.203Z,1026.01
2023-04-18T22:02:29.892Z,1025.99
2023-04-18T22:17:30.500Z,1025.86
2023-04-18T22:32:31.241Z,1025.74
2023-04-18T22:47:31.909Z,1025.70
2023-04-18T23:02:32.791Z,1025.56
2023-04-18T23:17:33.035Z,1025.58
2023-04-18T23:32:34.033Z,1025.52
2023-04-18T23:47:35.151Z,1025.53
